sensor_id;sensor_type;location;lat;lon;timestamp;pressure;altitude;pressure_sealevel;temperature;humidity
46942;BME280;32676;52.630;4.896;2022-07-24T00:00:33;100804.41;;;19.07;72.42
46942;BME280;32676;52.630;4.896;2022-07-24T00:02:59;100799.28;;;19.04;72.42
46942;BME280;32676;52.630;4.896;2022-07-24T00:05:26;100810.47;;;19.09;72.53
46942;BME280;32676;52.630;4.896;2022-07-24T00:07:52;100821.13;;;19.09;72.45
46942;BME280;32676;52.630;4.896;2022-07-24T00:10:19;100829.88;;;19.11;72.24
46942;BME280;32676;52.630;4.896;2022-07-24T00:12:45;100836.06;;;19.12;72.27
46942;BME280;32676;52.630;4.896;2022-07-24T00:15:12;100823.81;;;19.09;72.37
46942;BME280;32676;52.630;4.896;2022-07-24T00:17:40;100814.31;;;19.05;72.34
46942;BME280;32676;52.630;4.896;2022-07-24T00:20:07;100813.34;;;19.06;72.59
46942;BME280;32676;52.630;4.896;2022-07-24T00:22:34;100804.59;;;19.04;72.50
46942;BME280;32676;52.630;4.896;2022-07-24T00:25:00;100803.88;;;19.02;72.62
46942;BME280;32676;52.630;4.896;2022-07-24T00:27:27;100800.47;;;19.00;72.60
46942;BME280;32676;52.630;4.896;2022-07-24T00:29:53;100807.50;;;19.01;72.62
46942;BME280;32676;52.630;4.896;2022-07-24T00:32:20;100797.06;;;18.98;72.57
46942;BME280;32676;52.630;4.896;2022-07-24T00:34:50;100790.88;;;18.97;72.86
46942;BME280;32676;52.630;4.896;2022-07-24T00:37:16;100795.34;;;18.97;72.56
46942;BME280;32676;52.630;4.896;2022-07-24T00:39:42;100797.91;;;18.98;72.81
46942;BME280;32676;52.630;4.896;2022-07-24T00:42:10;100786.59;;;18.95;72.96
46942;BME280;32676;52.630;4.896;2022-07-24T00:44:37;100775.31;;;18.91;73.19
46942;BME280;32676;52.630;4.896;2022-07-24T00:47:04;100770.06;;;18.90;73.31
46942;BME280;32676;52.630;4.896;2022-07-24T00:49:30;100769.34;;;18.88;73.60
46942;BME280;32676;52.630;4.896;2022-07-24T00:51:58;100743.13;;;18.82;73.72
46942;BME280;32676;52.630;4.896;2022-07-24T00:54:25;100738.66;;;18.82;74.11
46942;BME280;32676;52.630;4.896;2022-07-24T00:56:53;100751.88;;;18.84;74.00
46942;BME280;32676;52.630;4.896;2022-07-24T00:59:20;100741.38;;;18.80;74.23
46942;BME280;32676;52.630;4.896;2022-07-24T01:01:47;100743.13;;;18.82;74.23
46942;BME280;32676;52.630;4.896;2022-07-24T01:04:14;100745.03;;;18.79;74.45
46942;BME280;32676;52.630;4.896;2022-07-24T01:06:42;100742.47;;;18.78;74.54
46942;BME280;32676;52.630;4.896;2022-07-24T01:09:10;100714.66;;;18.69;74.58
46942;BME280;32676;52.630;4.896;2022-07-24T01:11:38;100727.53;;;18.75;74.51
46942;BME280;32676;52.630;4.896;2022-07-24T01:14:05;100724.13;;;18.73;74.58
46942;BME280;32676;52.630;4.896;2022-07-24T01:16:32;100733.09;;;18.72;74.62
46942;BME280;32676;52.630;4.896;2022-07-24T01:18:59;100735.53;;;18.75;74.59
46942;BME280;32676;52.630;4.896;2022-07-24T01:21:27;100749.72;;;18.76;74.37
46942;BME280;32676;52.630;4.896;2022-07-24T01:23:53;100755.03;;;18.76;74.20
46942;BME280;32676;52.630;4.896;2022-07-24T01:26:20;100762.91;;;18.77;74.05
46942;BME280;32676;52.630;4.896;2022-07-24T01:28:46;100771.66;;;18.79;73.84
46942;BME280;32676;52.630;4.896;2022-07-24T01:31:13;100764.59;;;18.78;73.49
46942;BME280;32676;52.630;4.896;2022-07-24T01:33:39;100769.94;;;18.78;73.23
46942;BME280;32676;52.630;4.896;2022-07-24T01:36:06;100755.22;;;18.73;72.95
46942;BME280;32676;52.630;4.896;2022-07-24T01:38:34;100766.53;;;18.76;72.88
46942;BME280;32676;52.630;4.896;2022-07-24T01:41:01;100754.38;;;18.72;72.59
46942;BME280;32676;52.630;4.896;2022-07-24T01:43:27;100762.91;;;18.77;72.47
46942;BME280;32676;52.630;4.896;2022-07-24T01:45:54;100763.97;;;18.75;72.43
46942;BME280;32676;52.630;4.896;2022-07-24T01:48:20;100764.06;;;18.73;72.46
46942;BME280;32676;52.630;4.896;2022-07-24T01:50:47;100755.22;;;18.73;72.61
46942;BME280;32676;52.630;4.896;2022-07-24T01:53:13;100765.03;;;18.72;72.55
46942;BME280;32676;52.630;4.896;2022-07-24T01:55:42;100759.72;;;18.72;72.37
46942;BME280;32676;52.630;4.896;2022-07-24T01:58:08;100759.72;;;18.72;72.29
46942;BME280;32676;52.630;4.896;2022-07-24T02:00:35;100739.03;;;18.63;72.31
46942;BME280;32676;52.630;4.896;2022-07-24T02:03:01;100754.59;;;18.69;72.32
46942;BME280;32676;52.630;4.896;2022-07-24T02:05:28;100758.00;;;18.71;72.15
46942;BME280;32676;52.630;4.896;2022-07-24T02:07:56;100752.91;;;18.68;72.18
46942;BME280;32676;52.630;4.896;2022-07-24T02:10:24;100737.97;;;18.66;72.26
46942;BME280;32676;52.630;4.896;2022-07-24T02:12:52;100739.03;;;18.63;72.30
46942;BME280;32676;52.630;4.896;2022-07-24T02:15:19;100732.00;;;18.62;72.33
46942;BME280;32676;52.630;4.896;2022-07-24T02:17:46;100721.56;;;18.59;72.44
46942;BME280;32676;52.630;4.896;2022-07-24T02:20:13;100712.81;;;18.57;72.63
46942;BME280;32676;52.630;4.896;2022-07-24T02:22:40;100699.75;;;18.54;72.67
46942;BME280;32676;52.630;4.896;2022-07-24T02:25:07;100681.63;;;18.46;72.79
46942;BME280;32676;52.630;4.896;2022-07-24T02:27:34;100694.53;;;18.52;72.88
46942;BME280;32676;52.630;4.896;2022-07-24T02:30:02;100693.66;;;18.52;72.97
46942;BME280;32676;52.630;4.896;2022-07-24T02:32:29;100668.75;;;18.40;73.22
46942;BME280;32676;52.630;4.896;2022-07-24T02:34:55;100672.78;;;18.46;73.36
46942;BME280;32676;52.630;4.896;2022-07-24T02:37:22;100669.38;;;18.44;73.59
46942;BME280;32676;52.630;4.896;2022-07-24T02:39:48;100668.53;;;18.43;73.56
46942;BME280;32676;52.630;4.896;2022-07-24T02:42:15;100657.25;;;18.39;73.71
46942;BME280;32676;52.630;4.896;2022-07-24T02:44:41;100653.84;;;18.37;73.68
46942;BME280;32676;52.630;4.896;2022-07-24T02:47:09;100658.09;;;18.40;73.61
46942;BME280;32676;52.630;4.896;2022-07-24T02:49:36;100664.25;;;18.40;73.65
46942;BME280;32676;52.630;4.896;2022-07-24T02:52:02;100658.94;;;18.40;73.76
46942;BME280;32676;52.630;4.896;2022-07-24T02:54:29;100655.53;;;18.38;73.82
46942;BME280;32676;52.630;4.896;2022-07-24T02:56:56;100645.97;;;18.36;74.03
46942;BME280;32676;52.630;4.896;2022-07-24T02:59:22;100650.41;;;18.35;74.12
46942;BME280;32676;52.630;4.896;2022-07-24T03:01:49;100635.63;;;18.31;74.36
46942;BME280;32676;52.630;4.896;2022-07-24T03:04:16;100619.13;;;18.26;74.85
46942;BME280;32676;52.630;4.896;2022-07-24T03:06:44;100609.56;;;18.23;74.99
46942;BME280;32676;52.630;4.896;2022-07-24T03:09:11;100591.25;;;18.19;75.21
46942;BME280;32676;52.630;4.896;2022-07-24T03:11:38;100585.19;;;18.17;75.26
46942;BME280;32676;52.630;4.896;2022-07-24T03:14:04;100570.41;;;18.13;75.33
46942;BME280;32676;52.630;4.896;2022-07-24T03:16:31;100542.72;;;18.02;75.58
46942;BME280;32676;52.630;4.896;2022-07-24T03:18:57;100527.94;;;17.98;75.83
46942;BME280;32676;52.630;4.896;2022-07-24T03:21:25;100550.50;;;18.06;75.97
46942;BME280;32676;52.630;4.896;2022-07-24T03:23:51;100539.13;;;18.03;76.20
46942;BME280;32676;52.630;4.896;2022-07-24T03:26:18;100543.50;;;18.05;76.36
46942;BME280;32676;52.630;4.896;2022-07-24T03:28:44;100527.84;;;18.00;76.24
46942;BME280;32676;52.630;4.896;2022-07-24T03:31:12;100519.97;;;17.98;76.63
46942;BME280;32676;52.630;4.896;2022-07-24T03:33:38;100501.25;;;17.87;76.77
46942;BME280;32676;52.630;4.896;2022-07-24T03:36:05;100515.72;;;17.96;76.76
46942;BME280;32676;52.630;4.896;2022-07-24T03:38:35;100507.09;;;17.92;76.81
46942;BME280;32676;52.630;4.896;2022-07-24T03:41:01;100474.50;;;17.76;76.90
46942;BME280;32676;52.630;4.896;2022-07-24T03:43:28;100495.72;;;17.90;76.85
46942;BME280;32676;52.630;4.896;2022-07-24T03:45:54;100501.03;;;17.90;76.93
46942;BME280;32676;52.630;4.896;2022-07-24T03:48:21;100508.03;;;17.91;76.76
46942;BME280;32676;52.630;4.896;2022-07-24T03:50:47;100501.97;;;17.89;76.60
46942;BME280;32676;52.630;4.896;2022-07-24T03:53:14;100468.47;;;17.74;76.94
46942;BME280;32676;52.630;4.896;2022-07-24T03:55:42;100462.72;;;17.80;76.89
46942;BME280;32676;52.630;4.896;2022-07-24T03:58:08;100486.44;;;17.83;77.04
46942;BME280;32676;52.630;4.896;2022-07-24T04:00:35;100463.66;;;17.79;77.18
46942;BME280;32676;52.630;4.896;2022-07-24T04:03:01;100467.28;;;17.78;77.31
46942;BME280;32676;52.630;4.896;2022-07-24T04:05:27;100466.44;;;17.77;77.47
46942;BME280;32676;52.630;4.896;2022-07-24T04:07:54;100470.78;;;17.78;77.31
46942;BME280;32676;52.630;4.896;2022-07-24T04:10:21;100461.22;;;17.76;77.46
46942;BME280;32676;52.630;4.896;2022-07-24T04:12:48;100474.41;;;17.77;77.57
46942;BME280;32676;52.630;4.896;2022-07-24T04:15:15;100470.13;;;17.75;77.24
46942;BME280;32676;52.630;4.896;2022-07-24T04:17:42;100445.91;;;17.67;77.43
46942;BME280;32676;52.630;4.896;2022-07-24T04:20:10;100469.41;;;17.73;77.63
46942;BME280;32676;52.630;4.896;2022-07-24T04:22:37;100487.56;;;17.79;77.62
46942;BME280;32676;52.630;4.896;2022-07-24T04:25:05;100492.16;;;17.77;77.53
46942;BME280;32676;52.630;4.896;2022-07-24T04:27:32;100517.34;;;17.84;77.56
46942;BME280;32676;52.630;4.896;2022-07-24T04:30:00;100520.78;;;17.86;77.43
46942;BME280;32676;52.630;4.896;2022-07-24T04:32:26;100533.97;;;17.88;77.39
46942;BME280;32676;52.630;4.896;2022-07-24T04:34:53;100548.88;;;17.90;77.80
46942;BME280;32676;52.630;4.896;2022-07-24T04:37:19;100552.28;;;17.92;77.79
46942;BME280;32676;52.630;4.896;2022-07-24T04:39:46;100566.34;;;17.94;77.56
46942;BME280;32676;52.630;4.896;2022-07-24T04:42:12;100558.88;;;17.87;77.55
46942;BME280;32676;52.630;4.896;2022-07-24T04:44:39;100602.94;;;18.03;77.80
46942;BME280;32676;52.630;4.896;2022-07-24T04:47:07;100639.72;;;18.10;77.71
46942;BME280;32676;52.630;4.896;2022-07-24T04:49:34;100669.53;;;18.15;77.56
46942;BME280;32676;52.630;4.896;2022-07-24T04:52:00;100700.09;;;18.22;77.27
46942;BME280;32676;52.630;4.896;2022-07-24T04:54:27;100700.00;;;18.23;77.48
46942;BME280;32676;52.630;4.896;2022-07-24T04:56:53;100730.75;;;18.28;77.46
46942;BME280;32676;52.630;4.896;2022-07-24T04:59:20;100750.03;;;18.31;77.47
46942;BME280;32676;52.630;4.896;2022-07-24T05:01:46;100763.88;;;18.36;77.15
46942;BME280;32676;52.630;4.896;2022-07-24T05:04:14;100797.09;;;18.44;77.12
46942;BME280;32676;52.630;4.896;2022-07-24T05:06:40;100815.53;;;18.47;77.09
46942;BME280;32676;52.630;4.896;2022-07-24T05:09:07;100833.09;;;18.49;77.13
46942;BME280;32676;52.630;4.896;2022-07-24T05:11:34;100868.91;;;18.58;77.20
46942;BME280;32676;52.630;4.896;2022-07-24T05:14:00;100901.31;;;18.65;77.30
46942;BME280;32676;52.630;4.896;2022-07-24T05:16:26;100966.00;;;18.79;77.52
46942;BME280;32676;52.630;4.896;2022-07-24T05:18:53;101042.25;;;18.95;77.65
46942;BME280;32676;52.630;4.896;2022-07-24T05:21:21;101124.41;;;19.15;77.05
46942;BME280;32676;52.630;4.896;2022-07-24T05:23:47;101207.75;;;19.32;76.44
46942;BME280;32676;52.630;4.896;2022-07-24T05:26:14;101268.09;;;19.47;76.13
46942;BME280;32676;52.630;4.896;2022-07-24T05:28:40;101323.56;;;19.55;75.58
46942;BME280;32676;52.630;4.896;2022-07-24T05:31:07;101417.13;;;19.81;75.10
46942;BME280;32676;52.630;4.896;2022-07-24T05:33:34;101487.38;;;19.96;74.60
46942;BME280;32676;52.630;4.896;2022-07-24T05:36:00;101556.63;;;20.11;74.12
46942;BME280;32676;52.630;4.896;2022-07-24T05:38:28;101608.75;;;20.17;73.73
46942;BME280;32676;52.630;4.896;2022-07-24T05:40:54;101668.09;;;20.37;72.87
46942;BME280;32676;52.630;4.896;2022-07-24T05:43:21;101733.16;;;20.50;72.19
46942;BME280;32676;52.630;4.896;2022-07-24T05:45:48;101775.34;;;20.59;72.01
46942;BME280;32676;52.630;4.896;2022-07-24T05:48:14;101805.25;;;20.66;71.79
46942;BME280;32676;52.630;4.896;2022-07-24T05:50:40;101857.09;;;20.78;71.13
46942;BME280;32676;52.630;4.896;2022-07-24T05:53:07;101914.00;;;20.94;70.93
46942;BME280;32676;52.630;4.896;2022-07-24T05:55:35;101975.72;;;21.05;70.36
46942;BME280;32676;52.630;4.896;2022-07-24T05:58:01;102054.81;;;21.24;69.81
46942;BME280;32676;52.630;4.896;2022-07-24T06:00:28;102151.72;;;21.45;69.74
46942;BME280;32676;52.630;4.896;2022-07-24T06:02:54;102216.84;;;21.60;68.61
46942;BME280;32676;52.630;4.896;2022-07-24T06:05:21;102275.88;;;21.73;67.94
46942;BME280;32676;52.630;4.896;2022-07-24T06:07:47;102318.16;;;21.82;67.02
46942;BME280;32676;52.630;4.896;2022-07-24T06:10:14;102308.50;;;21.79;67.48
46942;BME280;32676;52.630;4.896;2022-07-24T06:12:42;102301.41;;;21.78;67.49
46942;BME280;32676;52.630;4.896;2022-07-24T06:15:08;102255.47;;;21.70;67.54
46942;BME280;32676;52.630;4.896;2022-07-24T06:17:35;102210.53;;;21.61;67.81
46942;BME280;32676;52.630;4.896;2022-07-24T06:20:02;102186.81;;;21.55;67.65
46942;BME280;32676;52.630;4.896;2022-07-24T06:22:29;102158.53;;;21.51;67.97
46942;BME280;32676;52.630;4.896;2022-07-24T06:24:55;102154.09;;;21.50;68.05
46942;BME280;32676;52.630;4.896;2022-07-24T06:27:22;102130.38;;;21.43;68.04
46942;BME280;32676;52.630;4.896;2022-07-24T06:29:50;102103.97;;;21.37;68.29
46942;BME280;32676;52.630;4.896;2022-07-24T06:32:16;102078.53;;;21.30;68.34
46942;BME280;32676;52.630;4.896;2022-07-24T06:34:43;102071.31;;;21.32;68.09
46942;BME280;32676;52.630;4.896;2022-07-24T06:37:09;102053.69;;;21.28;68.08
46942;BME280;32676;52.630;4.896;2022-07-24T06:39:35;102037.09;;;21.23;68.20
46942;BME280;32676;52.630;4.896;2022-07-24T06:42:02;102037.84;;;21.25;68.32
46942;BME280;32676;52.630;4.896;2022-07-24T06:44:29;102052.75;;;21.29;68.29
46942;BME280;32676;52.630;4.896;2022-07-24T06:46:57;102083.63;;;21.35;67.87
46942;BME280;32676;52.630;4.896;2022-07-24T06:49:23;102117.94;;;21.42;68.27
46942;BME280;32676;52.630;4.896;2022-07-24T06:51:50;102116.03;;;21.44;67.97
46942;BME280;32676;52.630;4.896;2022-07-24T06:54:16;102126.72;;;21.44;67.73
46942;BME280;32676;52.630;4.896;2022-07-24T06:56:43;102123.16;;;21.45;67.36
46942;BME280;32676;52.630;4.896;2022-07-24T06:59:09;102128.50;;;21.45;67.72
46942;BME280;32676;52.630;4.896;2022-07-24T07:01:36;102117.84;;;21.44;67.73
46942;BME280;32676;52.630;4.896;2022-07-24T07:04:04;102101.97;;;21.41;67.34
46942;BME280;32676;52.630;4.896;2022-07-24T07:06:30;102107.22;;;21.42;67.74
46942;BME280;32676;52.630;4.896;2022-07-24T07:08:57;102172.50;;;21.56;67.88
46942;BME280;32676;52.630;4.896;2022-07-24T07:11:23;102227.00;;;21.69;67.29
46942;BME280;32676;52.630;4.896;2022-07-24T07:13:49;102251.69;;;21.74;67.53
46942;BME280;32676;52.630;4.896;2022-07-24T07:16:16;102255.16;;;21.76;66.95
46942;BME280;32676;52.630;4.896;2022-07-24T07:18:42;102255.22;;;21.75;67.02
46942;BME280;32676;52.630;4.896;2022-07-24T07:21:10;102370.50;;;22.03;66.53
46942;BME280;32676;52.630;4.896;2022-07-24T07:23:37;102519.63;;;22.35;66.44
46942;BME280;32676;52.630;4.896;2022-07-24T07:26:04;102608.75;;;22.54;65.91
46942;BME280;32676;52.630;4.896;2022-07-24T07:28:30;102664.38;;;22.67;65.20
46942;BME280;32676;52.630;4.896;2022-07-24T07:30:57;102708.47;;;22.77;64.92
46942;BME280;32676;52.630;4.896;2022-07-24T07:33:24;102772.84;;;22.93;64.56
46942;BME280;32676;52.630;4.896;2022-07-24T07:35:51;102839.19;;;23.07;63.70
46942;BME280;32676;52.630;4.896;2022-07-24T07:38:19;102856.84;;;23.11;63.03
46942;BME280;32676;52.630;4.896;2022-07-24T07:40:46;102848.72;;;23.12;63.03
46942;BME280;32676;52.630;4.896;2022-07-24T07:43:12;102807.13;;;23.04;62.05
46942;BME280;32676;52.630;4.896;2022-07-24T07:45:39;102811.56;;;23.05;62.28
46942;BME280;32676;52.630;4.896;2022-07-24T07:48:05;102828.28;;;23.10;61.82
46942;BME280;32676;52.630;4.896;2022-07-24T07:50:32;102851.31;;;23.14;61.80
46942;BME280;32676;52.630;4.896;2022-07-24T07:52:58;102871.59;;;23.19;61.77
46942;BME280;32676;52.630;4.896;2022-07-24T07:55:26;102925.47;;;23.32;61.21
46942;BME280;32676;52.630;4.896;2022-07-24T07:57:53;102987.31;;;23.47;60.45
46942;BME280;32676;52.630;4.896;2022-07-24T08:00:19;103044.69;;;23.62;60.25
46942;BME280;32676;52.630;4.896;2022-07-24T08:02:46;103105.78;;;23.74;60.16
46942;BME280;32676;52.630;4.896;2022-07-24T08:05:12;103155.31;;;23.86;59.16
46942;BME280;32676;52.630;4.896;2022-07-24T08:07:39;103205.66;;;24.00;59.44
46942;BME280;32676;52.630;4.896;2022-07-24T08:10:06;103268.44;;;24.14;58.71
46942;BME280;32676;52.630;4.896;2022-07-24T08:12:34;103319.97;;;24.23;58.02
46942;BME280;32676;52.630;4.896;2022-07-24T08:15:01;103364.97;;;24.37;57.78
46942;BME280;32676;52.630;4.896;2022-07-24T08:17:28;103423.41;;;24.50;57.46
46942;BME280;32676;52.630;4.896;2022-07-24T08:19:54;103473.88;;;24.63;57.04
46942;BME280;32676;52.630;4.896;2022-07-24T08:22:21;103497.00;;;24.67;56.63
46942;BME280;32676;52.630;4.896;2022-07-24T08:24:47;103552.78;;;24.81;56.52
46942;BME280;32676;52.630;4.896;2022-07-24T08:27:14;103567.03;;;24.83;56.08
46942;BME280;32676;52.630;4.896;2022-07-24T08:29:42;103599.75;;;24.93;56.17
46942;BME280;32676;52.630;4.896;2022-07-24T08:32:09;103641.28;;;25.04;55.68
46942;BME280;32676;52.630;4.896;2022-07-24T08:34:36;103677.66;;;25.13;55.36
46942;BME280;32676;52.630;4.896;2022-07-24T08:37:02;103713.16;;;25.21;54.54
46942;BME280;32676;52.630;4.896;2022-07-24T08:39:29;103716.50;;;25.26;54.04
46942;BME280;32676;52.630;4.896;2022-07-24T08:41:56;103670.22;;;25.18;54.24
46942;BME280;32676;52.630;4.896;2022-07-24T08:44:22;103658.75;;;25.15;53.98
46942;BME280;32676;52.630;4.896;2022-07-24T08:46:53;103708.34;;;25.28;53.99
46942;BME280;32676;52.630;4.896;2022-07-24T08:49:21;103717.94;;;25.34;53.91
46942;BME280;32676;52.630;4.896;2022-07-24T08:51:48;103753.44;;;25.42;53.30
46942;BME280;32676;52.630;4.896;2022-07-24T08:54:15;103742.69;;;25.42;53.40
46942;BME280;32676;52.630;4.896;2022-07-24T08:56:42;103744.41;;;25.43;53.38
46942;BME280;32676;52.630;4.896;2022-07-24T08:59:15;103697.19;;;25.36;53.70
46942;BME280;32676;52.630;4.896;2022-07-24T09:01:43;103635.88;;;25.23;53.66
46942;BME280;32676;52.630;4.896;2022-07-24T09:04:31;103547.91;;;25.06;54.38
46942;BME280;32676;52.630;4.896;2022-07-24T09:06:59;103514.19;;;24.99;54.72
46942;BME280;32676;52.630;4.896;2022-07-24T09:09:26;103507.94;;;24.99;54.53
46942;BME280;32676;52.630;4.896;2022-07-24T09:12:02;103556.63;;;25.12;54.96
46942;BME280;32676;52.630;4.896;2022-07-24T09:14:30;103555.63;;;25.14;55.06
46942;BME280;32676;52.630;4.896;2022-07-24T09:17:01;103591.06;;;25.22;55.02
46942;BME280;32676;52.630;4.896;2022-07-24T09:19:28;103665.72;;;25.38;54.26
46942;BME280;32676;52.630;4.896;2022-07-24T09:21:56;103720.59;;;25.53;53.49
46942;BME280;32676;52.630;4.896;2022-07-24T09:24:22;103764.88;;;25.64;52.66
46942;BME280;32676;52.630;4.896;2022-07-24T09:26:56;103834.19;;;25.80;52.54
46942;BME280;32676;52.630;4.896;2022-07-24T09:29:24;103898.09;;;25.95;52.29
46942;BME280;32676;52.630;4.896;2022-07-24T09:31:52;103959.34;;;26.11;51.76
46942;BME280;32676;52.630;4.896;2022-07-24T09:34:19;104004.56;;;26.23;51.09
46942;BME280;32676;52.630;4.896;2022-07-24T09:36:58;104072.16;;;26.37;50.97
46942;BME280;32676;52.630;4.896;2022-07-24T09:39:26;104129.19;;;26.49;50.45
46942;BME280;32676;52.630;4.896;2022-07-24T09:41:58;104172.56;;;26.63;49.41
46942;BME280;32676;52.630;4.896;2022-07-24T09:44:25;104207.22;;;26.72;48.78
46942;BME280;32676;52.630;4.896;2022-07-24T09:46:56;104222.38;;;26.75;48.45
46942;BME280;32676;52.630;4.896;2022-07-24T09:49:24;104248.88;;;26.86;49.02
46942;BME280;32676;52.630;4.896;2022-07-24T09:52:12;104281.75;;;26.94;49.04
46942;BME280;32676;52.630;4.896;2022-07-24T09:54:41;104242.38;;;26.90;48.47
46942;BME280;32676;52.630;4.896;2022-07-24T09:57:15;104208.38;;;26.86;48.14
46942;BME280;32676;52.630;4.896;2022-07-24T09:59:45;104152.63;;;26.67;48.39
46942;BME280;32676;52.630;4.896;2022-07-24T10:02:13;104113.88;;;26.68;49.14
46942;BME280;32676;52.630;4.896;2022-07-24T10:04:41;104130.78;;;26.72;49.12
46942;BME280;32676;52.630;4.896;2022-07-24T10:07:12;104171.59;;;26.83;49.49
46942;BME280;32676;52.630;4.896;2022-07-24T10:09:41;104193.72;;;26.91;49.38
46942;BME280;32676;52.630;4.896;2022-07-24T10:12:13;104212.38;;;26.96;48.96
46942;BME280;32676;52.630;4.896;2022-07-24T10:14:41;104216.84;;;26.97;48.96
46942;BME280;32676;52.630;4.896;2022-07-24T10:17:10;104200.56;;;26.98;48.63
46942;BME280;32676;52.630;4.896;2022-07-24T10:19:40;104212.16;;;27.00;48.94
46942;BME280;32676;52.630;4.896;2022-07-24T10:22:11;104236.25;;;27.05;49.83
46942;BME280;32676;52.630;4.896;2022-07-24T10:24:55;104252.00;;;27.14;49.01
46942;BME280;32676;52.630;4.896;2022-07-24T10:27:28;104258.97;;;27.18;48.61
46942;BME280;32676;52.630;4.896;2022-07-24T10:29:56;104265.97;;;27.23;47.99
46942;BME280;32676;52.630;4.896;2022-07-24T10:32:23;104256.34;;;27.17;47.94
46942;BME280;32676;52.630;4.896;2022-07-24T10:34:58;104273.00;;;27.27;48.52
46942;BME280;32676;52.630;4.896;2022-07-24T10:37:33;104296.06;;;27.34;49.23
46942;BME280;32676;52.630;4.896;2022-07-24T10:40:08;104292.41;;;27.35;47.94
46942;BME280;32676;52.630;4.896;2022-07-24T10:43:11;104224.53;;;27.24;47.71
46942;BME280;32676;52.630;4.896;2022-07-24T10:45:40;104219.13;;;27.24;48.41
46942;BME280;32676;52.630;4.896;2022-07-24T10:48:29;104195.75;;;27.23;48.42
46942;BME280;32676;52.630;4.896;2022-07-24T10:51:08;104195.75;;;27.23;48.64
46942;BME280;32676;52.630;4.896;2022-07-24T10:53:48;104225.13;;;27.30;48.75
46942;BME280;32676;52.630;4.896;2022-07-24T10:56:17;104223.25;;;27.32;48.08
46942;BME280;32676;52.630;4.896;2022-07-24T10:58:52;104192.81;;;27.29;48.08
46942;BME280;32676;52.630;4.896;2022-07-24T11:01:33;104183.88;;;27.27;47.93
46942;BME280;32676;52.630;4.896;2022-07-24T11:04:01;104170.38;;;27.27;48.19
46942;BME280;32676;52.630;4.896;2022-07-24T11:06:42;104166.75;;;27.28;48.18
46942;BME280;32676;52.630;4.896;2022-07-24T11:09:11;104147.00;;;27.26;47.93
46942;BME280;32676;52.630;4.896;2022-07-24T11:11:42;104156.72;;;27.30;48.40
46942;BME280;32676;52.630;4.896;2022-07-24T11:14:48;104153.09;;;27.31;48.58
46942;BME280;32676;52.630;4.896;2022-07-24T11:17:37;104153.88;;;27.33;48.81
46942;BME280;32676;52.630;4.896;2022-07-24T11:20:06;104159.09;;;27.36;48.24
46942;BME280;32676;52.630;4.896;2022-07-24T11:22:39;104151.97;;;27.35;48.50
46942;BME280;32676;52.630;4.896;2022-07-24T11:25:18;104130.50;;;27.32;48.28
46942;BME280;32676;52.630;4.896;2022-07-24T11:27:54;104138.41;;;27.36;47.97
46942;BME280;32676;52.630;4.896;2022-07-24T11:30:23;104128.47;;;27.37;47.53
46942;BME280;32676;52.630;4.896;2022-07-24T11:32:51;104102.72;;;27.30;47.67
46942;BME280;32676;52.630;4.896;2022-07-24T11:35:29;104073.00;;;27.30;47.34
46942;BME280;32676;52.630;4.896;2022-07-24T11:37:56;104064.03;;;27.29;47.23
46942;BME280;32676;52.630;4.896;2022-07-24T11:40:26;104060.47;;;27.29;47.36
46942;BME280;32676;52.630;4.896;2022-07-24T11:42:56;104051.41;;;27.30;47.47
46942;BME280;32676;52.630;4.896;2022-07-24T11:45:23;104065.53;;;27.35;47.47
46942;BME280;32676;52.630;4.896;2022-07-24T11:47:50;104069.97;;;27.36;46.95
46942;BME280;32676;52.630;4.896;2022-07-24T11:50:20;104086.75;;;27.43;47.64
46942;BME280;32676;52.630;4.896;2022-07-24T11:52:47;104111.63;;;27.49;47.55
46942;BME280;32676;52.630;4.896;2022-07-24T11:55:16;104135.50;;;27.57;47.99
46942;BME280;32676;52.630;4.896;2022-07-24T11:57:45;104142.56;;;27.60;46.75
46942;BME280;32676;52.630;4.896;2022-07-24T12:00:14;104143.41;;;27.62;46.75
46942;BME280;32676;52.630;4.896;2022-07-24T12:02:45;104155.78;;;27.66;46.83
46942;BME280;32676;52.630;4.896;2022-07-24T12:05:12;104148.63;;;27.65;46.52
46942;BME280;32676;52.630;4.896;2022-07-24T12:07:39;104130.66;;;27.64;46.01
46942;BME280;32676;52.630;4.896;2022-07-24T12:10:06;104135.09;;;27.65;46.29
46942;BME280;32676;52.630;4.896;2022-07-24T12:12:35;104126.84;;;27.68;46.60
46942;BME280;32676;52.630;4.896;2022-07-24T12:15:06;104122.31;;;27.68;46.24
46942;BME280;32676;52.630;4.896;2022-07-24T12:17:34;104111.56;;;27.67;46.34
46942;BME280;32676;52.630;4.896;2022-07-24T12:20:03;104129.31;;;27.72;46.80
46942;BME280;32676;52.630;4.896;2022-07-24T12:22:32;104141.69;;;27.76;46.52
46942;BME280;32676;52.630;4.896;2022-07-24T12:24:59;104140.66;;;27.79;46.14
46942;BME280;32676;52.630;4.896;2022-07-24T12:27:40;104156.56;;;27.85;45.62
46942;BME280;32676;52.630;4.896;2022-07-24T12:30:20;104168.94;;;27.89;46.10
46942;BME280;32676;52.630;4.896;2022-07-24T12:32:55;104192.09;;;27.95;45.85
46942;BME280;32676;52.630;4.896;2022-07-24T12:35:22;104197.25;;;28.00;45.97
46942;BME280;32676;52.630;4.896;2022-07-24T12:37:51;104212.44;;;28.02;45.32
46942;BME280;32676;52.630;4.896;2022-07-24T12:40:24;104196.22;;;28.02;45.18
46942;BME280;32676;52.630;4.896;2022-07-24T12:43:03;104203.28;;;28.05;44.96
46942;BME280;32676;52.630;4.896;2022-07-24T12:45:31;104205.84;;;28.08;45.31
46942;BME280;32676;52.630;4.896;2022-07-24T12:48:24;104223.63;;;28.12;45.00
46942;BME280;32676;52.630;4.896;2022-07-24T12:51:02;104226.19;;;28.15;44.61
46942;BME280;32676;52.630;4.896;2022-07-24T12:53:31;104228.75;;;28.18;45.16
46942;BME280;32676;52.630;4.896;2022-07-24T12:56:07;104251.78;;;28.25;45.38